sensor_id;sensor_type;location;lat;lon;timestamp;P1;durP1;ratioP1;P2;durP2;ratioP2
53674;SDS011;39574;50.534;8.500;2023-03-01T00:02:55;17.3;;;10.4;;
53674;SDS011;39574;50.534;8.500;2023-03-01T00:07:54;17.0;;;10.3;;
53674;SDS011;39574;50.534;8.500;2023-03-01T00:12:53;16.8;;;10.3;;
53674;SDS011;39574;50.534;8.500;2023-03-01T00:17:51;17.4;;;10.0;;
53674;SDS011;39574;50.534;8.500;2023-03-01T00:22:50;17.2;;;10.2;;
53674;SDS011;39574;50.534;8.500;2023-03-01T00:27:48;17.3;;;10.5;;
53674;SDS011;39574;50.534;8.500;2023-03-01T00:32:47;16.2;;;10.3;;
53674;SDS011;39574;50.534;8.500;2023-03-01T00:37:46;17.5;;;11.0;;
53674;SDS011;39574;50.534;8.500;2023-03-01T00:42:44;17.5;;;10.8;;
53674;SDS011;39574;50.534;8.500;2023-03-01T00:47:43;18.3;;;10.8;;
53674;SDS011;39574;50.534;8.500;2023-03-01T00:52:42;17.8;;;10.9;;
53674;SDS011;39574;50.534;8.500;2023-03-01T00:57:40;17.1;;;10.6;;
53674;SDS011;39574;50.534;8.500;2023-03-01T01:02:39;16.6;;;10.4;;
53674;SDS011;39574;50.534;8.500;2023-03-01T01:07:38;16.2;;;10.3;;
53674;SDS011;39574;50.534;8.500;2023-03-01T01:12:36;17.2;;;10.4;;
53674;SDS011;39574;50.534;8.500;2023-03-01T01:17:35;17.6;;;10.7;;
53674;SDS011;39574;50.534;8.500;2023-03-01T01:22:33;17.9;;;11.0;;
53674;SDS011;39574;50.534;8.500;2023-03-01T01:27:32;17.8;;;11.2;;
53674;SDS011;39574;50.534;8.500;2023-03-01T01:32:31;18.8;;;11.6;;
53674;SDS011;39574;50.534;8.500;2023-03-01T01:37:29;19.0;;;11.6;;
53674;SDS011;39574;50.534;8.500;2023-03-01T01:42:28;18.8;;;11.7;;
53674;SDS011;39574;50.534;8.500;2023-03-01T01:47:26;19.2;;;11.8;;
53674;SDS011;39574;50.534;8.500;2023-03-01T01:52:26;19.6;;;11.8;;
53674;SDS011;39574;50.534;8.500;2023-03-01T01:57:26;19.7;;;11.5;;
53674;SDS011;39574;50.534;8.500;2023-03-01T02:02:22;20.2;;;11.7;;
53674;SDS011;39574;50.534;8.500;2023-03-01T02:07:21;20.6;;;11.7;;
53674;SDS011;39574;50.534;8.500;2023-03-01T02:12:20;21.4;;;12.0;;
53674;SDS011;39574;50.534;8.500;2023-03-01T02:17:18;21.0;;;12.0;;
53674;SDS011;39574;50.534;8.500;2023-03-01T02:22:19;19.5;;;11.8;;
53674;SDS011;39574;50.534;8.500;2023-03-01T02:27:15;18.8;;;11.7;;
53674;SDS011;39574;50.534;8.500;2023-03-01T02:32:14;18.2;;;11.5;;
53674;SDS011;39574;50.534;8.500;2023-03-01T02:37:13;20.4;;;11.7;;
53674;SDS011;39574;50.534;8.500;2023-03-01T02:42:12;21.4;;;12.0;;
53674;SDS011;39574;50.534;8.500;2023-03-01T02:47:10;22.0;;;12.7;;
53674;SDS011;39574;50.534;8.500;2023-03-01T02:52:16;22.2;;;12.6;;
53674;SDS011;39574;50.534;8.500;2023-03-01T02:57:07;21.2;;;12.5;;
53674;SDS011;39574;50.534;8.500;2023-03-01T03:02:06;20.7;;;12.5;;
53674;SDS011;39574;50.534;8.500;2023-03-01T03:07:04;19.8;;;12.2;;
53674;SDS011;39574;50.534;8.500;2023-03-01T03:12:03;20.0;;;12.2;;
53674;SDS011;39574;50.534;8.500;2023-03-01T03:17:01;20.6;;;12.1;;
53674;SDS011;39574;50.534;8.500;2023-03-01T03:22:00;20.8;;;12.2;;
53674;SDS011;39574;50.534;8.500;2023-03-01T03:26:58;21.1;;;12.2;;
53674;SDS011;39574;50.534;8.500;2023-03-01T03:31:57;21.3;;;12.3;;
53674;SDS011;39574;50.534;8.500;2023-03-01T03:36:56;20.3;;;12.2;;
53674;SDS011;39574;50.534;8.500;2023-03-01T03:41:54;22.2;;;12.9;;
53674;SDS011;39574;50.534;8.500;2023-03-01T03:46:53;21.5;;;12.6;;
53674;SDS011;39574;50.534;8.500;2023-03-01T03:51:51;21.6;;;12.8;;
53674;SDS011;39574;50.534;8.500;2023-03-01T03:56:50;21.5;;;12.7;;
53674;SDS011;39574;50.534;8.500;2023-03-01T04:01:48;21.4;;;12.7;;
53674;SDS011;39574;50.534;8.500;2023-03-01T04:06:47;20.5;;;12.7;;
53674;SDS011;39574;50.534;8.500;2023-03-01T04:11:45;22.1;;;12.9;;
53674;SDS011;39574;50.534;8.500;2023-03-01T04:16:44;23.2;;;13.2;;
53674;SDS011;39574;50.534;8.500;2023-03-01T04:21:43;23.0;;;13.4;;
53674;SDS011;39574;50.534;8.500;2023-03-01T04:26:41;22.2;;;13.2;;
53674;SDS011;39574;50.534;8.500;2023-03-01T04:31:40;23.8;;;13.5;;
53674;SDS011;39574;50.534;8.500;2023-03-01T04:36:38;24.4;;;13.6;;
53674;SDS011;39574;50.534;8.500;2023-03-01T04:41:37;24.5;;;13.7;;
53674;SDS011;39574;50.534;8.500;2023-03-01T04:46:35;23.4;;;13.5;;
53674;SDS011;39574;50.534;8.500;2023-03-01T04:51:34;23.5;;;13.5;;
53674;SDS011;39574;50.534;8.500;2023-03-01T04:56:33;21.9;;;13.1;;
53674;SDS011;39574;50.534;8.500;2023-03-01T05:01:31;21.3;;;13.0;;
53674;SDS011;39574;50.534;8.500;2023-03-01T05:06:30;21.7;;;13.1;;
53674;SDS011;39574;50.534;8.500;2023-03-01T05:11:28;21.4;;;12.8;;
53674;SDS011;39574;50.534;8.500;2023-03-01T05:16:27;22.0;;;12.9;;
53674;SDS011;39574;50.534;8.500;2023-03-01T05:21:25;23.0;;;12.7;;
53674;SDS011;39574;50.534;8.500;2023-03-01T05:26:24;23.0;;;12.9;;
53674;SDS011;39574;50.534;8.500;2023-03-01T05:31:22;23.5;;;13.1;;
53674;SDS011;39574;50.534;8.500;2023-03-01T05:36:21;23.9;;;13.2;;
53674;SDS011;39574;50.534;8.500;2023-03-01T05:41:19;23.7;;;13.2;;
53674;SDS011;39574;50.534;8.500;2023-03-01T05:46:18;23.9;;;13.2;;
53674;SDS011;39574;50.534;8.500;2023-03-01T05:51:17;24.5;;;13.6;;
53674;SDS011;39574;50.534;8.500;2023-03-01T05:56:15;24.4;;;13.3;;
53674;SDS011;39574;50.534;8.500;2023-03-01T06:01:13;25.6;;;13.2;;
53674;SDS011;39574;50.534;8.500;2023-03-01T06:06:12;25.4;;;13.4;;
53674;SDS011;39574;50.534;8.500;2023-03-01T06:11:10;24.6;;;13.8;;
53674;SDS011;39574;50.534;8.500;2023-03-01T06:16:10;26.1;;;14.5;;
53674;SDS011;39574;50.534;8.500;2023-03-01T06:21:08;25.9;;;14.6;;
53674;SDS011;39574;50.534;8.500;2023-03-01T06:26:06;27.0;;;14.8;;
53674;SDS011;39574;50.534;8.500;2023-03-01T06:31:05;26.9;;;14.7;;
53674;SDS011;39574;50.534;8.500;2023-03-01T06:41:02;25.7;;;14.3;;
53674;SDS011;39574;50.534;8.500;2023-03-01T06:46:03;28.4;;;15.5;;
53674;SDS011;39574;50.534;8.500;2023-03-01T06:50:59;31.1;;;16.9;;
53674;SDS011;39574;50.534;8.500;2023-03-01T06:55:58;30.0;;;16.5;;
53674;SDS011;39574;50.534;8.500;2023-03-01T07:00:56;29.0;;;16.2;;
53674;SDS011;39574;50.534;8.500;2023-03-01T07:05:55;27.3;;;15.5;;
53674;SDS011;39574;50.534;8.500;2023-03-01T07:10:54;27.1;;;15.7;;
53674;SDS011;39574;50.534;8.500;2023-03-01T07:15:52;27.5;;;15.6;;
53674;SDS011;39574;50.534;8.500;2023-03-01T07:20:50;26.5;;;15.0;;
53674;SDS011;39574;50.534;8.500;2023-03-01T07:25:52;25.7;;;14.8;;
53674;SDS011;39574;50.534;8.500;2023-03-01T07:30:47;25.1;;;14.6;;
53674;SDS011;39574;50.534;8.500;2023-03-01T07:35:46;26.0;;;15.4;;
53674;SDS011;39574;50.534;8.500;2023-03-01T07:40:44;28.0;;;15.9;;
53674;SDS011;39574;50.534;8.500;2023-03-01T07:45:43;27.2;;;15.5;;
53674;SDS011;39574;50.534;8.500;2023-03-01T07:50:41;26.8;;;14.9;;
53674;SDS011;39574;50.534;8.500;2023-03-01T07:55:40;25.4;;;14.5;;
53674;SDS011;39574;50.534;8.500;2023-03-01T08:00:39;24.8;;;14.3;;
53674;SDS011;39574;50.534;8.500;2023-03-01T08:05:37;24.4;;;14.2;;
53674;SDS011;39574;50.534;8.500;2023-03-01T08:10:36;24.3;;;14.6;;
53674;SDS011;39574;50.534;8.500;2023-03-01T08:15:34;24.4;;;14.6;;
53674;SDS011;39574;50.534;8.500;2023-03-01T08:20:38;24.3;;;14.5;;
53674;SDS011;39574;50.534;8.500;2023-03-01T08:25:32;24.0;;;14.3;;
53674;SDS011;39574;50.534;8.500;2023-03-01T08:30:30;23.9;;;14.0;;
53674;SDS011;39574;50.534;8.500;2023-03-01T08:35:29;23.6;;;14.1;;
53674;SDS011;39574;50.534;8.500;2023-03-01T08:40:27;23.0;;;13.7;;
53674;SDS011;39574;50.534;8.500;2023-03-01T08:45:26;22.8;;;13.5;;
53674;SDS011;39574;50.534;8.500;2023-03-01T08:50:25;22.7;;;13.3;;
53674;SDS011;39574;50.534;8.500;2023-03-01T08:55:23;21.7;;;12.9;;
53674;SDS011;39574;50.534;8.500;2023-03-01T09:00:22;21.7;;;12.8;;
53674;SDS011;39574;50.534;8.500;2023-03-01T09:05:21;22.1;;;12.9;;
53674;SDS011;39574;50.534;8.500;2023-03-01T09:10:20;22.0;;;13.1;;
53674;SDS011;39574;50.534;8.500;2023-03-01T09:15:18;23.3;;;13.7;;
53674;SDS011;39574;50.534;8.500;2023-03-01T09:20:17;22.9;;;13.8;;
53674;SDS011;39574;50.534;8.500;2023-03-01T09:25:16;22.3;;;13.2;;
53674;SDS011;39574;50.534;8.500;2023-03-01T09:30:14;21.2;;;12.5;;
53674;SDS011;39574;50.534;8.500;2023-03-01T09:35:13;19.8;;;12.1;;
53674;SDS011;39574;50.534;8.500;2023-03-01T09:40:12;19.6;;;12.1;;
53674;SDS011;39574;50.534;8.500;2023-03-01T09:45:11;18.9;;;11.9;;
53674;SDS011;39574;50.534;8.500;2023-03-01T09:50:10;18.0;;;11.7;;
53674;SDS011;39574;50.534;8.500;2023-03-01T09:55:09;17.6;;;11.4;;
53674;SDS011;39574;50.534;8.500;2023-03-01T10:00:11;17.6;;;11.6;;
53674;SDS011;39574;50.534;8.500;2023-03-01T10:10:05;19.1;;;11.8;;
53674;SDS011;39574;50.534;8.500;2023-03-01T10:15:04;18.4;;;11.3;;
53674;SDS011;39574;50.534;8.500;2023-03-01T10:20:14;18.0;;;11.1;;
53674;SDS011;39574;50.534;8.500;2023-03-01T10:25:02;19.3;;;11.2;;
53674;SDS011;39574;50.534;8.500;2023-03-01T10:30:02;18.9;;;11.1;;
53674;SDS011;39574;50.534;8.500;2023-03-01T10:34:58;17.6;;;10.8;;
53674;SDS011;39574;50.534;8.500;2023-03-01T10:39:58;17.1;;;10.7;;
53674;SDS011;39574;50.534;8.500;2023-03-01T10:44:56;16.5;;;10.4;;
53674;SDS011;39574;50.534;8.500;2023-03-01T10:49:56;15.8;;;10.4;;
53674;SDS011;39574;50.534;8.500;2023-03-01T10:54:54;15.3;;;10.2;;
53674;SDS011;39574;50.534;8.500;2023-03-01T11:00:00;15.8;;;10.3;;
53674;SDS011;39574;50.534;8.500;2023-03-01T11:04:56;16.1;;;10.3;;
53674;SDS011;39574;50.534;8.500;2023-03-01T11:09:50;16.8;;;10.8;;
53674;SDS011;39574;50.534;8.500;2023-03-01T11:14:50;16.7;;;10.9;;
53674;SDS011;39574;50.534;8.500;2023-03-01T11:19:59;16.8;;;11.1;;
53674;SDS011;39574;50.534;8.500;2023-03-01T11:24:48;17.2;;;11.1;;
53674;SDS011;39574;50.534;8.500;2023-03-01T11:29:46;16.5;;;10.8;;
53674;SDS011;39574;50.534;8.500;2023-03-01T11:34:46;17.6;;;10.5;;
53674;SDS011;39574;50.534;8.500;2023-03-01T11:39:45;17.1;;;10.5;;
53674;SDS011;39574;50.534;8.500;2023-03-01T11:44:43;16.3;;;10.2;;
53674;SDS011;39574;50.534;8.500;2023-03-01T11:49:48;15.9;;;10.3;;
53674;SDS011;39574;50.534;8.500;2023-03-01T11:54:45;16.1;;;10.6;;
53674;SDS011;39574;50.534;8.500;2023-03-01T11:59:58;15.9;;;10.6;;
53674;SDS011;39574;50.534;8.500;2023-03-01T12:04:48;15.5;;;10.5;;
53674;SDS011;39574;50.534;8.500;2023-03-01T12:09:41;15.6;;;10.4;;
53674;SDS011;39574;50.534;8.500;2023-03-01T12:14:39;15.4;;;10.3;;
53674;SDS011;39574;50.534;8.500;2023-03-01T12:19:39;15.8;;;10.3;;
53674;SDS011;39574;50.534;8.500;2023-03-01T12:24:39;16.1;;;10.5;;
53674;SDS011;39574;50.534;8.500;2023-03-01T12:29:34;17.1;;;10.7;;
53674;SDS011;39574;50.534;8.500;2023-03-01T12:34:37;18.4;;;11.1;;
53674;SDS011;39574;50.534;8.500;2023-03-01T12:39:34;17.8;;;11.0;;
53674;SDS011;39574;50.534;8.500;2023-03-01T12:44:35;16.6;;;10.6;;
53674;SDS011;39574;50.534;8.500;2023-03-01T12:49:30;15.9;;;10.6;;
53674;SDS011;39574;50.534;8.500;2023-03-01T12:54:29;17.0;;;10.5;;
53674;SDS011;39574;50.534;8.500;2023-03-01T12:59:28;15.3;;;10.1;;
53674;SDS011;39574;50.534;8.500;2023-03-01T13:04:29;13.5;;;9.5;;
53674;SDS011;39574;50.534;8.500;2023-03-01T13:09:27;13.9;;;9.4;;
53674;SDS011;39574;50.534;8.500;2023-03-01T13:14:55;14.2;;;9.7;;
53674;SDS011;39574;50.534;8.500;2023-03-01T13:19:23;14.9;;;10.0;;
53674;SDS011;39574;50.534;8.500;2023-03-01T13:24:23;15.3;;;10.0;;
53674;SDS011;39574;50.534;8.500;2023-03-01T13:29:25;14.8;;;9.6;;
53674;SDS011;39574;50.534;8.500;2023-03-01T13:34:52;15.1;;;9.3;;
53674;SDS011;39574;50.534;8.500;2023-03-01T13:39:27;14.3;;;9.5;;
53674;SDS011;39574;50.534;8.500;2023-03-01T13:44:20;14.1;;;9.5;;
53674;SDS011;39574;50.534;8.500;2023-03-01T13:49:18;14.2;;;9.5;;
53674;SDS011;39574;50.534;8.500;2023-03-01T13:54:18;14.0;;;9.4;;
53674;SDS011;39574;50.534;8.500;2023-03-01T13:59:16;13.6;;;9.1;;
53674;SDS011;39574;50.534;8.500;2023-03-01T14:04:18;13.6;;;9.2;;
53674;SDS011;39574;50.534;8.500;2023-03-01T14:09:14;13.9;;;9.1;;
53674;SDS011;39574;50.534;8.500;2023-03-01T14:14:45;14.1;;;8.9;;
53674;SDS011;39574;50.534;8.500;2023-03-01T14:19:14;15.2;;;9.0;;
53674;SDS011;39574;50.534;8.500;2023-03-01T14:24:18;15.0;;;8.9;;
53674;SDS011;39574;50.534;8.500;2023-03-01T14:29:23;13.5;;;8.7;;
53674;SDS011;39574;50.534;8.500;2023-03-01T14:34:16;13.0;;;8.5;;
53674;SDS011;39574;50.534;8.500;2023-03-01T14:39:15;12.8;;;8.6;;
53674;SDS011;39574;50.534;8.500;2023-03-01T14:44:07;13.3;;;8.5;;
53674;SDS011;39574;50.534;8.500;2023-03-01T14:49:07;13.5;;;8.3;;
53674;SDS011;39574;50.534;8.500;2023-03-01T14:54:10;13.2;;;8.2;;
53674;SDS011;39574;50.534;8.500;2023-03-01T14:59:04;12.3;;;8.0;;
53674;SDS011;39574;50.534;8.500;2023-03-01T15:04:03;12.2;;;8.2;;
53674;SDS011;39574;50.534;8.500;2023-03-01T15:09:02;11.8;;;8.1;;
53674;SDS011;39574;50.534;8.500;2023-03-01T15:14:01;12.2;;;8.0;;
53674;SDS011;39574;50.534;8.500;2023-03-01T15:19:01;12.1;;;7.7;;
53674;SDS011;39574;50.534;8.500;2023-03-01T15:24:00;11.1;;;7.2;;
53674;SDS011;39574;50.534;8.500;2023-03-01T15:28:58;10.6;;;6.8;;
53674;SDS011;39574;50.534;8.500;2023-03-01T15:34:21;11.2;;;6.5;;
53674;SDS011;39574;50.534;8.500;2023-03-01T15:38:56;11.5;;;6.6;;
53674;SDS011;39574;50.534;8.500;2023-03-01T15:43:55;12.2;;;6.9;;
53674;SDS011;39574;50.534;8.500;2023-03-01T15:48:55;11.7;;;7.0;;
53674;SDS011;39574;50.534;8.500;2023-03-01T15:53:54;10.9;;;7.1;;
53674;SDS011;39574;50.534;8.500;2023-03-01T15:58:52;10.5;;;6.9;;
53674;SDS011;39574;50.534;8.500;2023-03-01T16:03:51;11.2;;;7.2;;
53674;SDS011;39574;50.534;8.500;2023-03-01T16:08:50;10.9;;;7.1;;
53674;SDS011;39574;50.534;8.500;2023-03-01T16:13:50;10.9;;;7.1;;
53674;SDS011;39574;50.534;8.500;2023-03-01T16:18:49;11.3;;;7.1;;
53674;SDS011;39574;50.534;8.500;2023-03-01T16:23:48;11.2;;;6.9;;
53674;SDS011;39574;50.534;8.500;2023-03-01T16:28:47;11.9;;;7.0;;
53674;SDS011;39574;50.534;8.500;2023-03-01T16:33:46;11.9;;;7.1;;
53674;SDS011;39574;50.534;8.500;2023-03-01T16:38:46;11.8;;;7.0;;
53674;SDS011;39574;50.534;8.500;2023-03-01T16:43:44;12.3;;;7.3;;
53674;SDS011;39574;50.534;8.500;2023-03-01T16:48:43;12.3;;;7.5;;
53674;SDS011;39574;50.534;8.500;2023-03-01T16:53:42;12.3;;;7.3;;
53674;SDS011;39574;50.534;8.500;2023-03-01T16:58:40;11.9;;;7.2;;
53674;SDS011;39574;50.534;8.500;2023-03-01T17:03:39;11.3;;;6.8;;
53674;SDS011;39574;50.534;8.500;2023-03-01T17:08:38;11.2;;;6.8;;
53674;SDS011;39574;50.534;8.500;2023-03-01T17:13:37;11.4;;;6.9;;
53674;SDS011;39574;50.534;8.500;2023-03-01T17:18:36;11.3;;;6.9;;
53674;SDS011;39574;50.534;8.500;2023-03-01T17:23:35;11.5;;;7.0;;
53674;SDS011;39574;50.534;8.500;2023-03-01T17:28:34;13.1;;;7.4;;
53674;SDS011;39574;50.534;8.500;2023-03-01T17:33:32;13.3;;;7.5;;
53674;SDS011;39574;50.534;8.500;2023-03-01T17:38:31;13.3;;;7.4;;
53674;SDS011;39574;50.534;8.500;2023-03-01T17:43:30;12.7;;;7.5;;
53674;SDS011;39574;50.534;8.500;2023-03-01T17:48:29;11.8;;;7.0;;
53674;SDS011;39574;50.534;8.500;2023-03-01T17:53:27;12.0;;;7.1;;
53674;SDS011;39574;50.534;8.500;2023-03-01T17:58:26;11.9;;;7.0;;
53674;SDS011;39574;50.534;8.500;2023-03-01T18:03:25;12.9;;;7.0;;
53674;SDS011;39574;50.534;8.500;2023-03-01T18:08:23;12.8;;;7.1;;
53674;SDS011;39574;50.534;8.500;2023-03-01T18:13:22;12.0;;;7.1;;
53674;SDS011;39574;50.534;8.500;2023-03-01T18:18:21;12.4;;;7.2;;
53674;SDS011;39574;50.534;8.500;2023-03-01T18:23:20;12.7;;;7.1;;
53674;SDS011;39574;50.534;8.500;2023-03-01T18:28:18;12.4;;;7.2;;
53674;SDS011;39574;50.534;8.500;2023-03-01T18:33:17;12.9;;;7.0;;
53674;SDS011;39574;50.534;8.500;2023-03-01T18:38:16;12.3;;;7.0;;
53674;SDS011;39574;50.534;8.500;2023-03-01T18:43:15;12.0;;;7.0;;
53674;SDS011;39574;50.534;8.500;2023-03-01T18:48:14;12.1;;;6.9;;
53674;SDS011;39574;50.534;8.500;2023-03-01T18:53:12;11.6;;;6.8;;
53674;SDS011;39574;50.534;8.500;2023-03-01T18:58:11;12.1;;;7.0;;
53674;SDS011;39574;50.534;8.500;2023-03-01T19:03:10;12.2;;;7.0;;
53674;SDS011;39574;50.534;8.500;2023-03-01T19:08:09;12.0;;;7.2;;
53674;SDS011;39574;50.534;8.500;2023-03-01T19:13:07;12.7;;;7.3;;
53674;SDS011;39574;50.534;8.500;2023-03-01T19:23:06;13.6;;;7.5;;
53674;SDS011;39574;50.534;8.500;2023-03-01T19:28:03;12.8;;;7.2;;
53674;SDS011;39574;50.534;8.500;2023-03-01T19:33:02;12.3;;;6.9;;
53674;SDS011;39574;50.534;8.500;2023-03-01T19:43:04;12.2;;;7.0;;
53674;SDS011;39574;50.534;8.500;2023-03-01T19:47:58;13.2;;;7.0;;
53674;SDS011;39574;50.534;8.500;2023-03-01T19:52:57;13.5;;;7.0;;
53674;SDS011;39574;50.534;8.500;2023-03-01T19:57:55;13.6;;;7.4;;
53674;SDS011;39574;50.534;8.500;2023-03-01T20:02:54;12.9;;;7.1;;
53674;SDS011;39574;50.534;8.500;2023-03-01T20:07:53;14.4;;;7.3;;
53674;SDS011;39574;50.534;8.500;2023-03-01T20:12:52;14.1;;;7.2;;
53674;SDS011;39574;50.534;8.500;2023-03-01T20:17:50;13.1;;;7.3;;
53674;SDS011;39574;50.534;8.500;2023-03-01T20:22:49;12.8;;;7.3;;
53674;SDS011;39574;50.534;8.500;2023-03-01T20:27:48;12.9;;;7.4;;
53674;SDS011;39574;50.534;8.500;2023-03-01T20:32:47;12.6;;;7.3;;
53674;SDS011;39574;50.534;8.500;2023-03-01T20:37:45;12.6;;;7.2;;
53674;SDS011;39574;50.534;8.500;2023-03-01T20:42:44;13.0;;;7.5;;
53674;SDS011;39574;50.534;8.500;2023-03-01T21:02:39;14.0;;;8.1;;
53674;SDS011;39574;50.534;8.500;2023-03-01T21:07:39;16.5;;;8.6;;
53674;SDS011;39574;50.534;8.500;2023-03-01T21:12:36;15.3;;;8.5;;
53674;SDS011;39574;50.534;8.500;2023-03-01T21:17:35;15.2;;;8.4;;
53674;SDS011;39574;50.534;8.500;2023-03-01T21:27:34;18.7;;;10.6;;
53674;SDS011;39574;50.534;8.500;2023-03-01T21:32:31;18.4;;;10.3;;
53674;SDS011;39574;50.534;8.500;2023-03-01T21:37:30;17.2;;;9.7;;
53674;SDS011;39574;50.534;8.500;2023-03-01T21:42:28;16.1;;;9.1;;
53674;SDS011;39574;50.534;8.500;2023-03-01T21:47:27;16.2;;;9.3;;
53674;SDS011;39574;50.534;8.500;2023-03-01T21:52:26;16.0;;;8.9;;
53674;SDS011;39574;50.534;8.500;2023-03-01T21:57:24;16.0;;;9.1;;
53674;SDS011;39574;50.534;8.500;2023-03-01T22:02:23;15.6;;;9.1;;
53674;SDS011;39574;50.534;8.500;2023-03-01T22:07:22;16.3;;;8.8;;
53674;SDS011;39574;50.534;8.500;2023-03-01T22:12:20;16.0;;;8.9;;
53674;SDS011;39574;50.534;8.500;2023-03-01T22:17:19;15.8;;;8.8;;
53674;SDS011;39574;50.534;8.500;2023-03-01T22:22:18;15.7;;;8.7;;
53674;SDS011;39574;50.534;8.500;2023-03-01T22:27:16;15.8;;;8.9;;
53674;SDS011;39574;50.534;8.500;2023-03-01T22:32:15;16.6;;;9.2;;
53674;SDS011;39574;50.534;8.500;2023-03-01T22:37:14;15.8;;;9.0;;
53674;SDS011;39574;50.534;8.500;2023-03-01T22:42:12;15.6;;;8.9;;
53674;SDS011;39574;50.534;8.500;2023-03-01T22:47:11;15.2;;;8.7;;
53674;SDS011;39574;50.534;8.500;2023-03-01T22:52:09;15.2;;;8.7;;
53674;SDS011;39574;50.534;8.500;2023-03-01T22:57:08;16.2;;;8.9;;
53674;SDS011;39574;50.534;8.500;2023-03-01T23:02:07;16.3;;;8.8;;
53674;SDS011;39574;50.534;8.500;2023-03-01T23:07:05;16.8;;;8.8;;
53674;SDS011;39574;50.534;8.500;2023-03-01T23:12:04;16.4;;;8.6;;
53674;SDS011;39574;50.534;8.500;2023-03-01T23:17:03;17.2;;;8.7;;
53674;SDS011;39574;50.534;8.500;2023-03-01T23:22:01;16.8;;;8.8;;
53674;SDS011;39574;50.534;8.500;2023-03-01T23:27:00;16.6;;;8.6;;
53674;SDS011;39574;50.534;8.500;2023-03-01T23:31:59;16.2;;;8.6;;
53674;SDS011;39574;50.534;8.500;2023-03-01T23:36:58;14.8;;;8.3;;
53674;SDS011;39574;50.534;8.500;2023-03-01T23:41:56;14.5;;;8.1;;
53674;SDS011;39574;50.534;8.500;2023-03-01T23:46:55;15.3;;;8.2;;
53674;SDS011;39574;50.534;8.500;2023-03-01T23:51:53;15.5;;;8.0;;
53674;SDS011;39574;50.534;8.500;2023-03-01T23:56:52;15.5;;;8.0;;
